sensor_id;sensor_type;location;lat;lon;timestamp;P1;durP1;ratioP1;P2;durP2;ratioP2
5299;SDS011;70402;42.670;23.258;2023-06-26T00:01:23;13.67;;;8.03;;
5299;SDS011;70402;42.670;23.258;2023-06-26T00:03:49;12.10;;;7.33;;
5299;SDS011;70402;42.670;23.258;2023-06-26T00:06:15;14.20;;;8.63;;
5299;SDS011;70402;42.670;23.258;2023-06-26T00:08:41;12.53;;;7.93;;
5299;SDS011;70402;42.670;23.258;2023-06-26T00:11:08;12.47;;;8.00;;
5299;SDS011;70402;42.670;23.258;2023-06-26T00:13:34;19.73;;;9.00;;
5299;SDS011;70402;42.670;23.258;2023-06-26T00:16:00;14.17;;;8.00;;
5299;SDS011;70402;42.670;23.258;2023-06-26T00:18:28;11.23;;;8.07;;
5299;SDS011;70402;42.670;23.258;2023-06-26T00:20:54;20.93;;;7.90;;
5299;SDS011;70402;42.670;23.258;2023-06-26T00:23:20;13.03;;;8.33;;
5299;SDS011;70402;42.670;23.258;2023-06-26T00:25:46;14.23;;;8.80;;
5299;SDS011;70402;42.670;23.258;2023-06-26T00:28:12;11.53;;;7.73;;
5299;SDS011;70402;42.670;23.258;2023-06-26T00:30:38;14.43;;;7.80;;
5299;SDS011;70402;42.670;23.258;2023-06-26T00:33:04;11.73;;;7.50;;
5299;SDS011;70402;42.670;23.258;2023-06-26T00:35:30;13.50;;;9.00;;
5299;SDS011;70402;42.670;23.258;2023-06-26T00:37:56;13.00;;;8.40;;
5299;SDS011;70402;42.670;23.258;2023-06-26T00:40:21;13.53;;;7.33;;
5299;SDS011;70402;42.670;23.258;2023-06-26T00:42:47;13.40;;;8.47;;
5299;SDS011;70402;42.670;23.258;2023-06-26T00:45:15;10.07;;;6.57;;
5299;SDS011;70402;42.670;23.258;2023-06-26T00:47:41;10.93;;;7.10;;
5299;SDS011;70402;42.670;23.258;2023-06-26T00:50:07;9.07;;;6.70;;
5299;SDS011;70402;42.670;23.258;2023-06-26T00:52:33;13.00;;;7.00;;
5299;SDS011;70402;42.670;23.258;2023-06-26T00:54:59;12.10;;;7.77;;
5299;SDS011;70402;42.670;23.258;2023-06-26T00:57:25;10.80;;;7.50;;
5299;SDS011;70402;42.670;23.258;2023-06-26T00:59:51;10.50;;;6.67;;
5299;SDS011;70402;42.670;23.258;2023-06-26T01:02:17;10.57;;;7.20;;
5299;SDS011;70402;42.670;23.258;2023-06-26T01:04:48;10.93;;;6.90;;
5299;SDS011;70402;42.670;23.258;2023-06-26T01:07:15;9.40;;;6.30;;
5299;SDS011;70402;42.670;23.258;2023-06-26T01:09:44;7.67;;;5.43;;
5299;SDS011;70402;42.670;23.258;2023-06-26T01:12:14;9.60;;;6.70;;
5299;SDS011;70402;42.670;23.258;2023-06-26T01:14:40;10.23;;;6.33;;
5299;SDS011;70402;42.670;23.258;2023-06-26T01:17:06;11.23;;;6.70;;
5299;SDS011;70402;42.670;23.258;2023-06-26T01:19:33;10.23;;;7.50;;
5299;SDS011;70402;42.670;23.258;2023-06-26T01:22:23;17.33;;;7.07;;
5299;SDS011;70402;42.670;23.258;2023-06-26T01:27:45;8.87;;;6.20;;
5299;SDS011;70402;42.670;23.258;2023-06-26T01:30:13;10.40;;;6.23;;
5299;SDS011;70402;42.670;23.258;2023-06-26T01:32:42;11.53;;;6.67;;
5299;SDS011;70402;42.670;23.258;2023-06-26T01:35:09;9.70;;;6.70;;
5299;SDS011;70402;42.670;23.258;2023-06-26T01:37:36;12.57;;;7.70;;
5299;SDS011;70402;42.670;23.258;2023-06-26T01:40:02;10.50;;;7.00;;
5299;SDS011;70402;42.670;23.258;2023-06-26T01:42:31;10.00;;;7.40;;
5299;SDS011;70402;42.670;23.258;2023-06-26T01:44:57;10.73;;;7.03;;
5299;SDS011;70402;42.670;23.258;2023-06-26T01:47:27;10.67;;;6.27;;
5299;SDS011;70402;42.670;23.258;2023-06-26T01:49:56;10.07;;;6.50;;
5299;SDS011;70402;42.670;23.258;2023-06-26T01:58:01;13.20;;;6.93;;
5299;SDS011;70402;42.670;23.258;2023-06-26T02:00:27;10.97;;;6.50;;
5299;SDS011;70402;42.670;23.258;2023-06-26T02:02:53;9.93;;;6.90;;
5299;SDS011;70402;42.670;23.258;2023-06-26T02:05:19;12.07;;;6.80;;
5299;SDS011;70402;42.670;23.258;2023-06-26T02:07:45;11.40;;;7.60;;
5299;SDS011;70402;42.670;23.258;2023-06-26T02:10:11;12.87;;;7.90;;
5299;SDS011;70402;42.670;23.258;2023-06-26T02:12:38;10.80;;;7.87;;
5299;SDS011;70402;42.670;23.258;2023-06-26T02:15:05;13.37;;;7.73;;
5299;SDS011;70402;42.670;23.258;2023-06-26T02:17:31;13.80;;;8.67;;
5299;SDS011;70402;42.670;23.258;2023-06-26T02:19:57;9.53;;;6.80;;
5299;SDS011;70402;42.670;23.258;2023-06-26T02:22:23;11.23;;;8.17;;
5299;SDS011;70402;42.670;23.258;2023-06-26T02:24:48;16.33;;;8.47;;
5299;SDS011;70402;42.670;23.258;2023-06-26T02:27:14;13.00;;;8.70;;
5299;SDS011;70402;42.670;23.258;2023-06-26T02:29:40;13.57;;;7.77;;
5299;SDS011;70402;42.670;23.258;2023-06-26T02:32:07;12.70;;;8.67;;
5299;SDS011;70402;42.670;23.258;2023-06-26T02:34:33;12.10;;;9.00;;
5299;SDS011;70402;42.670;23.258;2023-06-26T02:37:00;11.63;;;7.87;;
5299;SDS011;70402;42.670;23.258;2023-06-26T02:39:26;14.63;;;8.67;;
5299;SDS011;70402;42.670;23.258;2023-06-26T02:41:52;10.67;;;7.63;;
5299;SDS011;70402;42.670;23.258;2023-06-26T02:44:18;13.93;;;8.60;;
5299;SDS011;70402;42.670;23.258;2023-06-26T02:46:44;12.87;;;8.67;;
5299;SDS011;70402;42.670;23.258;2023-06-26T02:49:10;12.70;;;8.13;;
5299;SDS011;70402;42.670;23.258;2023-06-26T02:51:36;12.23;;;8.67;;
5299;SDS011;70402;42.670;23.258;2023-06-26T02:54:02;13.60;;;8.33;;
5299;SDS011;70402;42.670;23.258;2023-06-26T02:56:28;18.97;;;8.70;;
5299;SDS011;70402;42.670;23.258;2023-06-26T02:58:54;13.90;;;8.93;;
5299;SDS011;70402;42.670;23.258;2023-06-26T03:01:21;12.93;;;9.17;;
5299;SDS011;70402;42.670;23.258;2023-06-26T03:03:47;14.53;;;9.10;;
5299;SDS011;70402;42.670;23.258;2023-06-26T03:06:13;14.47;;;9.67;;
5299;SDS011;70402;42.670;23.258;2023-06-26T03:08:40;13.13;;;8.80;;
5299;SDS011;70402;42.670;23.258;2023-06-26T03:11:07;11.63;;;8.07;;
5299;SDS011;70402;42.670;23.258;2023-06-26T03:13:36;14.33;;;9.37;;
5299;SDS011;70402;42.670;23.258;2023-06-26T03:16:02;14.03;;;8.80;;
5299;SDS011;70402;42.670;23.258;2023-06-26T03:18:29;11.57;;;8.37;;
5299;SDS011;70402;42.670;23.258;2023-06-26T03:20:55;14.27;;;9.17;;
5299;SDS011;70402;42.670;23.258;2023-06-26T03:23:22;13.10;;;9.17;;
5299;SDS011;70402;42.670;23.258;2023-06-26T03:25:49;13.57;;;9.20;;
5299;SDS011;70402;42.670;23.258;2023-06-26T03:28:15;14.70;;;10.13;;
5299;SDS011;70402;42.670;23.258;2023-06-26T03:30:41;14.93;;;9.10;;
5299;SDS011;70402;42.670;23.258;2023-06-26T03:33:07;16.20;;;9.97;;
5299;SDS011;70402;42.670;23.258;2023-06-26T03:35:33;14.43;;;9.37;;
5299;SDS011;70402;42.670;23.258;2023-06-26T03:37:59;14.07;;;10.33;;
5299;SDS011;70402;42.670;23.258;2023-06-26T03:40:25;16.13;;;8.77;;
5299;SDS011;70402;42.670;23.258;2023-06-26T03:42:52;12.90;;;8.43;;
5299;SDS011;70402;42.670;23.258;2023-06-26T03:45:18;12.73;;;9.17;;
5299;SDS011;70402;42.670;23.258;2023-06-26T03:47:44;20.63;;;10.80;;
5299;SDS011;70402;42.670;23.258;2023-06-26T03:50:14;12.20;;;8.60;;
5299;SDS011;70402;42.670;23.258;2023-06-26T03:52:40;12.63;;;8.50;;
5299;SDS011;70402;42.670;23.258;2023-06-26T03:55:06;13.17;;;9.30;;
5299;SDS011;70402;42.670;23.258;2023-06-26T03:57:33;12.57;;;8.70;;
5299;SDS011;70402;42.670;23.258;2023-06-26T03:59:58;15.03;;;9.40;;
5299;SDS011;70402;42.670;23.258;2023-06-26T04:02:24;13.80;;;9.30;;
5299;SDS011;70402;42.670;23.258;2023-06-26T04:04:50;14.37;;;10.37;;
5299;SDS011;70402;42.670;23.258;2023-06-26T04:07:18;13.30;;;8.73;;
5299;SDS011;70402;42.670;23.258;2023-06-26T04:09:44;11.60;;;8.77;;
5299;SDS011;70402;42.670;23.258;2023-06-26T04:12:10;10.97;;;8.70;;
5299;SDS011;70402;42.670;23.258;2023-06-26T04:14:36;13.97;;;9.50;;
5299;SDS011;70402;42.670;23.258;2023-06-26T04:17:02;13.10;;;8.73;;
5299;SDS011;70402;42.670;23.258;2023-06-26T04:19:29;11.93;;;8.93;;
5299;SDS011;70402;42.670;23.258;2023-06-26T04:21:55;12.13;;;8.47;;
5299;SDS011;70402;42.670;23.258;2023-06-26T04:24:21;18.00;;;9.80;;
5299;SDS011;70402;42.670;23.258;2023-06-26T04:26:47;12.63;;;9.20;;
5299;SDS011;70402;42.670;23.258;2023-06-26T04:29:13;9.97;;;7.13;;
5299;SDS011;70402;42.670;23.258;2023-06-26T04:31:39;10.40;;;7.43;;
5299;SDS011;70402;42.670;23.258;2023-06-26T04:34:05;10.37;;;6.83;;
5299;SDS011;70402;42.670;23.258;2023-06-26T04:36:31;10.37;;;7.23;;
5299;SDS011;70402;42.670;23.258;2023-06-26T04:38:58;13.23;;;9.03;;
5299;SDS011;70402;42.670;23.258;2023-06-26T04:41:25;9.83;;;7.07;;
5299;SDS011;70402;42.670;23.258;2023-06-26T04:43:51;9.00;;;6.90;;
5299;SDS011;70402;42.670;23.258;2023-06-26T04:46:17;9.67;;;7.00;;
5299;SDS011;70402;42.670;23.258;2023-06-26T04:48:42;9.83;;;7.30;;
5299;SDS011;70402;42.670;23.258;2023-06-26T04:51:10;12.13;;;8.00;;
5299;SDS011;70402;42.670;23.258;2023-06-26T04:53:36;10.37;;;7.23;;
5299;SDS011;70402;42.670;23.258;2023-06-26T04:56:02;8.30;;;6.27;;
5299;SDS011;70402;42.670;23.258;2023-06-26T04:58:28;11.50;;;8.00;;
5299;SDS011;70402;42.670;23.258;2023-06-26T05:00:54;9.50;;;7.60;;
5299;SDS011;70402;42.670;23.258;2023-06-26T05:03:22;11.00;;;8.20;;
5299;SDS011;70402;42.670;23.258;2023-06-26T05:05:48;13.87;;;7.77;;
5299;SDS011;70402;42.670;23.258;2023-06-26T05:08:23;8.47;;;6.40;;
5299;SDS011;70402;42.670;23.258;2023-06-26T05:10:51;10.60;;;6.80;;
5299;SDS011;70402;42.670;23.258;2023-06-26T05:13:18;9.80;;;7.27;;
5299;SDS011;70402;42.670;23.258;2023-06-26T05:15:48;11.07;;;8.00;;
5299;SDS011;70402;42.670;23.258;2023-06-26T05:18:14;11.47;;;7.50;;
5299;SDS011;70402;42.670;23.258;2023-06-26T05:20:40;13.57;;;8.50;;
5299;SDS011;70402;42.670;23.258;2023-06-26T05:23:06;11.27;;;7.93;;
5299;SDS011;70402;42.670;23.258;2023-06-26T05:25:32;9.60;;;7.33;;
5299;SDS011;70402;42.670;23.258;2023-06-26T05:28:02;8.30;;;6.60;;
5299;SDS011;70402;42.670;23.258;2023-06-26T05:30:30;10.90;;;7.17;;
5299;SDS011;70402;42.670;23.258;2023-06-26T05:32:56;9.83;;;6.87;;
5299;SDS011;70402;42.670;23.258;2023-06-26T05:35:26;8.77;;;6.77;;
5299;SDS011;70402;42.670;23.258;2023-06-26T05:37:55;8.43;;;6.73;;
5299;SDS011;70402;42.670;23.258;2023-06-26T05:40:22;10.30;;;7.00;;
5299;SDS011;70402;42.670;23.258;2023-06-26T05:42:48;10.23;;;7.83;;
5299;SDS011;70402;42.670;23.258;2023-06-26T05:45:14;10.30;;;7.37;;
5299;SDS011;70402;42.670;23.258;2023-06-26T05:47:40;11.47;;;7.13;;
5299;SDS011;70402;42.670;23.258;2023-06-26T05:50:08;10.87;;;7.77;;
5299;SDS011;70402;42.670;23.258;2023-06-26T05:52:34;11.93;;;7.30;;
5299;SDS011;70402;42.670;23.258;2023-06-26T05:55:02;14.23;;;7.90;;
5299;SDS011;70402;42.670;23.258;2023-06-26T05:57:28;10.77;;;7.00;;
5299;SDS011;70402;42.670;23.258;2023-06-26T05:59:55;10.00;;;6.97;;
5299;SDS011;70402;42.670;23.258;2023-06-26T06:02:21;11.27;;;7.07;;
5299;SDS011;70402;42.670;23.258;2023-06-26T06:04:48;10.63;;;6.90;;
5299;SDS011;70402;42.670;23.258;2023-06-26T06:07:14;8.80;;;6.53;;
5299;SDS011;70402;42.670;23.258;2023-06-26T06:09:40;8.00;;;5.80;;
5299;SDS011;70402;42.670;23.258;2023-06-26T06:12:06;9.23;;;6.53;;
5299;SDS011;70402;42.670;23.258;2023-06-26T06:14:33;7.00;;;5.90;;
5299;SDS011;70402;42.670;23.258;2023-06-26T06:17:00;8.90;;;7.00;;
5299;SDS011;70402;42.670;23.258;2023-06-26T06:19:26;7.43;;;5.60;;
5299;SDS011;70402;42.670;23.258;2023-06-26T06:21:52;7.20;;;5.90;;
5299;SDS011;70402;42.670;23.258;2023-06-26T06:24:19;8.20;;;5.90;;
5299;SDS011;70402;42.670;23.258;2023-06-26T06:26:45;8.73;;;6.60;;
5299;SDS011;70402;42.670;23.258;2023-06-26T06:29:11;9.90;;;5.83;;
5299;SDS011;70402;42.670;23.258;2023-06-26T06:31:38;7.77;;;5.77;;
5299;SDS011;70402;42.670;23.258;2023-06-26T06:34:04;8.70;;;6.10;;
5299;SDS011;70402;42.670;23.258;2023-06-26T06:36:30;8.57;;;6.13;;
5299;SDS011;70402;42.670;23.258;2023-06-26T06:38:56;9.20;;;6.53;;
5299;SDS011;70402;42.670;23.258;2023-06-26T06:41:22;9.00;;;6.10;;
5299;SDS011;70402;42.670;23.258;2023-06-26T06:43:49;9.20;;;6.77;;
5299;SDS011;70402;42.670;23.258;2023-06-26T06:46:15;8.53;;;5.87;;
5299;SDS011;70402;42.670;23.258;2023-06-26T06:48:41;7.90;;;5.70;;
5299;SDS011;70402;42.670;23.258;2023-06-26T06:51:07;7.87;;;5.63;;
5299;SDS011;70402;42.670;23.258;2023-06-26T06:53:33;8.07;;;6.40;;
5299;SDS011;70402;42.670;23.258;2023-06-26T06:55:59;8.17;;;5.90;;
5299;SDS011;70402;42.670;23.258;2023-06-26T06:58:25;6.70;;;5.40;;
5299;SDS011;70402;42.670;23.258;2023-06-26T07:00:51;7.77;;;5.50;;
5299;SDS011;70402;42.670;23.258;2023-06-26T07:03:17;7.67;;;5.70;;
5299;SDS011;70402;42.670;23.258;2023-06-26T07:05:43;7.70;;;5.10;;
5299;SDS011;70402;42.670;23.258;2023-06-26T07:08:09;5.77;;;4.53;;
5299;SDS011;70402;42.670;23.258;2023-06-26T07:10:35;5.80;;;4.80;;
5299;SDS011;70402;42.670;23.258;2023-06-26T07:13:01;6.00;;;4.50;;
5299;SDS011;70402;42.670;23.258;2023-06-26T07:15:27;7.83;;;5.27;;
5299;SDS011;70402;42.670;23.258;2023-06-26T07:17:53;6.87;;;4.43;;
5299;SDS011;70402;42.670;23.258;2023-06-26T07:20:19;6.37;;;4.60;;
5299;SDS011;70402;42.670;23.258;2023-06-26T07:22:45;5.47;;;4.43;;
5299;SDS011;70402;42.670;23.258;2023-06-26T07:25:12;5.17;;;4.50;;
5299;SDS011;70402;42.670;23.258;2023-06-26T07:27:38;5.40;;;3.93;;
5299;SDS011;70402;42.670;23.258;2023-06-26T07:30:04;10.53;;;4.60;;
5299;SDS011;70402;42.670;23.258;2023-06-26T07:32:31;6.07;;;4.70;;
5299;SDS011;70402;42.670;23.258;2023-06-26T07:34:57;6.00;;;4.40;;
5299;SDS011;70402;42.670;23.258;2023-06-26T07:37:23;7.00;;;4.67;;
5299;SDS011;70402;42.670;23.258;2023-06-26T07:39:49;6.47;;;4.90;;
5299;SDS011;70402;42.670;23.258;2023-06-26T07:42:15;7.07;;;4.43;;
5299;SDS011;70402;42.670;23.258;2023-06-26T07:44:44;7.80;;;4.80;;
5299;SDS011;70402;42.670;23.258;2023-06-26T07:47:10;4.63;;;3.80;;
5299;SDS011;70402;42.670;23.258;2023-06-26T07:49:36;6.63;;;3.80;;
5299;SDS011;70402;42.670;23.258;2023-06-26T07:52:04;5.33;;;3.90;;
5299;SDS011;70402;42.670;23.258;2023-06-26T07:54:30;4.77;;;3.90;;
5299;SDS011;70402;42.670;23.258;2023-06-26T07:56:57;6.27;;;4.73;;
5299;SDS011;70402;42.670;23.258;2023-06-26T07:59:24;4.30;;;2.80;;
5299;SDS011;70402;42.670;23.258;2023-06-26T08:01:52;4.23;;;3.63;;
5299;SDS011;70402;42.670;23.258;2023-06-26T08:04:20;4.70;;;3.10;;
5299;SDS011;70402;42.670;23.258;2023-06-26T08:06:50;4.77;;;3.50;;
5299;SDS011;70402;42.670;23.258;2023-06-26T08:09:18;4.93;;;3.80;;
5299;SDS011;70402;42.670;23.258;2023-06-26T08:11:45;3.90;;;3.30;;
5299;SDS011;70402;42.670;23.258;2023-06-26T08:14:11;7.20;;;4.07;;
5299;SDS011;70402;42.670;23.258;2023-06-26T08:16:40;4.27;;;3.73;;
5299;SDS011;70402;42.670;23.258;2023-06-26T08:19:07;3.97;;;3.10;;
5299;SDS011;70402;42.670;23.258;2023-06-26T08:21:33;3.60;;;2.90;;
5299;SDS011;70402;42.670;23.258;2023-06-26T08:23:59;4.10;;;3.20;;
5299;SDS011;70402;42.670;23.258;2023-06-26T08:26:25;4.10;;;3.70;;
5299;SDS011;70402;42.670;23.258;2023-06-26T08:28:51;4.13;;;3.10;;
5299;SDS011;70402;42.670;23.258;2023-06-26T08:31:17;4.90;;;2.97;;
5299;SDS011;70402;42.670;23.258;2023-06-26T08:33:44;5.63;;;3.20;;
5299;SDS011;70402;42.670;23.258;2023-06-26T08:36:10;5.20;;;3.00;;
5299;SDS011;70402;42.670;23.258;2023-06-26T08:38:36;3.40;;;2.90;;
5299;SDS011;70402;42.670;23.258;2023-06-26T08:41:02;2.87;;;2.47;;
5299;SDS011;70402;42.670;23.258;2023-06-26T08:43:28;3.70;;;2.70;;
5299;SDS011;70402;42.670;23.258;2023-06-26T08:45:54;4.87;;;3.20;;
5299;SDS011;70402;42.670;23.258;2023-06-26T08:48:20;5.07;;;3.13;;
5299;SDS011;70402;42.670;23.258;2023-06-26T08:50:49;4.27;;;3.07;;
5299;SDS011;70402;42.670;23.258;2023-06-26T08:56:33;5.00;;;3.00;;
5299;SDS011;70402;42.670;23.258;2023-06-26T08:59:01;4.37;;;3.20;;
5299;SDS011;70402;42.670;23.258;2023-06-26T09:01:27;3.90;;;2.80;;
5299;SDS011;70402;42.670;23.258;2023-06-26T09:03:53;3.83;;;2.77;;
5299;SDS011;70402;42.670;23.258;2023-06-26T09:06:19;3.03;;;2.57;;
5299;SDS011;70402;42.670;23.258;2023-06-26T09:08:46;3.87;;;2.50;;
5299;SDS011;70402;42.670;23.258;2023-06-26T09:11:12;4.73;;;2.50;;
5299;SDS011;70402;42.670;23.258;2023-06-26T09:13:39;3.40;;;2.80;;
5299;SDS011;70402;42.670;23.258;2023-06-26T09:16:06;5.20;;;3.20;;
5299;SDS011;70402;42.670;23.258;2023-06-26T09:18:33;3.70;;;3.10;;
5299;SDS011;70402;42.670;23.258;2023-06-26T09:20:59;4.00;;;3.03;;
5299;SDS011;70402;42.670;23.258;2023-06-26T09:23:26;4.40;;;3.10;;
5299;SDS011;70402;42.670;23.258;2023-06-26T09:25:52;4.10;;;2.93;;
5299;SDS011;70402;42.670;23.258;2023-06-26T09:28:19;4.43;;;3.20;;
5299;SDS011;70402;42.670;23.258;2023-06-26T09:30:44;5.50;;;3.87;;
5299;SDS011;70402;42.670;23.258;2023-06-26T09:33:14;3.50;;;2.87;;
5299;SDS011;70402;42.670;23.258;2023-06-26T09:35:42;4.57;;;2.90;;
5299;SDS011;70402;42.670;23.258;2023-06-26T09:38:08;3.43;;;3.10;;
5299;SDS011;70402;42.670;23.258;2023-06-26T09:40:34;3.70;;;2.60;;
5299;SDS011;70402;42.670;23.258;2023-06-26T09:43:04;5.90;;;3.60;;
5299;SDS011;70402;42.670;23.258;2023-06-26T09:45:31;3.47;;;2.67;;
5299;SDS011;70402;42.670;23.258;2023-06-26T09:48:03;3.90;;;2.63;;
5299;SDS011;70402;42.670;23.258;2023-06-26T09:50:30;4.17;;;3.00;;
5299;SDS011;70402;42.670;23.258;2023-06-26T09:53:07;3.40;;;2.37;;
5299;SDS011;70402;42.670;23.258;2023-06-26T09:55:34;4.17;;;2.87;;
5299;SDS011;70402;42.670;23.258;2023-06-26T09:58:04;4.80;;;2.97;;
5299;SDS011;70402;42.670;23.258;2023-06-26T10:00:30;4.50;;;3.10;;
5299;SDS011;70402;42.670;23.258;2023-06-26T10:02:57;3.37;;;2.33;;
5299;SDS011;70402;42.670;23.258;2023-06-26T10:05:24;10.80;;;2.97;;
5299;SDS011;70402;42.670;23.258;2023-06-26T10:07:50;4.07;;;2.63;;
5299;SDS011;70402;42.670;23.258;2023-06-26T10:10:16;2.80;;;2.30;;
5299;SDS011;70402;42.670;23.258;2023-06-26T10:12:42;2.77;;;2.40;;
5299;SDS011;70402;42.670;23.258;2023-06-26T10:15:09;3.50;;;2.40;;
5299;SDS011;70402;42.670;23.258;2023-06-26T10:17:39;3.70;;;2.93;;
5299;SDS011;70402;42.670;23.258;2023-06-26T10:20:07;3.43;;;2.70;;
5299;SDS011;70402;42.670;23.258;2023-06-26T10:22:39;2.53;;;2.23;;
5299;SDS011;70402;42.670;23.258;2023-06-26T10:25:13;3.30;;;2.50;;
5299;SDS011;70402;42.670;23.258;2023-06-26T10:27:45;3.60;;;2.90;;
5299;SDS011;70402;42.670;23.258;2023-06-26T10:30:14;3.10;;;2.10;;
5299;SDS011;70402;42.670;23.258;2023-06-26T10:32:43;3.40;;;2.53;;
5299;SDS011;70402;42.670;23.258;2023-06-26T10:35:09;5.53;;;2.60;;
5299;SDS011;70402;42.670;23.258;2023-06-26T10:37:42;3.63;;;2.90;;
5299;SDS011;70402;42.670;23.258;2023-06-26T10:40:13;3.27;;;2.70;;
5299;SDS011;70402;42.670;23.258;2023-06-26T10:42:40;3.77;;;2.73;;
5299;SDS011;70402;42.670;23.258;2023-06-26T10:45:28;2.90;;;2.40;;
5299;SDS011;70402;42.670;23.258;2023-06-26T10:47:54;4.50;;;2.97;;
5299;SDS011;70402;42.670;23.258;2023-06-26T10:50:27;5.67;;;4.00;;
5299;SDS011;70402;42.670;23.258;2023-06-26T10:53:08;3.60;;;3.03;;
5299;SDS011;70402;42.670;23.258;2023-06-26T10:55:35;5.57;;;3.20;;
5299;SDS011;70402;42.670;23.258;2023-06-26T10:58:02;3.77;;;2.80;;
5299;SDS011;70402;42.670;23.258;2023-06-26T11:00:28;3.70;;;3.07;;
5299;SDS011;70402;42.670;23.258;2023-06-26T11:02:54;4.77;;;2.90;;
5299;SDS011;70402;42.670;23.258;2023-06-26T11:05:26;5.97;;;3.40;;
5299;SDS011;70402;42.670;23.258;2023-06-26T11:10:52;4.30;;;2.90;;
5299;SDS011;70402;42.670;23.258;2023-06-26T11:13:19;4.20;;;2.77;;
5299;SDS011;70402;42.670;23.258;2023-06-26T11:15:46;3.23;;;2.80;;
5299;SDS011;70402;42.670;23.258;2023-06-26T11:18:12;3.03;;;2.20;;
5299;SDS011;70402;42.670;23.258;2023-06-26T11:20:39;5.60;;;2.87;;
5299;SDS011;70402;42.670;23.258;2023-06-26T11:23:07;3.87;;;3.00;;
5299;SDS011;70402;42.670;23.258;2023-06-26T11:25:34;3.43;;;3.00;;
5299;SDS011;70402;42.670;23.258;2023-06-26T11:28:04;5.13;;;3.23;;
5299;SDS011;70402;42.670;23.258;2023-06-26T11:30:30;4.80;;;3.10;;
5299;SDS011;70402;42.670;23.258;2023-06-26T11:33:06;3.90;;;3.10;;
5299;SDS011;70402;42.670;23.258;2023-06-26T11:35:33;3.20;;;2.37;;
5299;SDS011;70402;42.670;23.258;2023-06-26T11:37:59;4.17;;;2.97;;
5299;SDS011;70402;42.670;23.258;2023-06-26T11:40:29;4.30;;;2.73;;
5299;SDS011;70402;42.670;23.258;2023-06-26T11:42:59;4.27;;;2.97;;
5299;SDS011;70402;42.670;23.258;2023-06-26T11:45:32;4.07;;;2.83;;
5299;SDS011;70402;42.670;23.258;2023-06-26T11:47:58;3.80;;;2.80;;
5299;SDS011;70402;42.670;23.258;2023-06-26T11:50:25;3.90;;;2.80;;
5299;SDS011;70402;42.670;23.258;2023-06-26T11:52:54;3.80;;;2.63;;
5299;SDS011;70402;42.670;23.258;2023-06-26T11:55:22;4.37;;;3.50;;
5299;SDS011;70402;42.670;23.258;2023-06-26T11:57:49;5.13;;;3.43;;
5299;SDS011;70402;42.670;23.258;2023-06-26T12:00:16;4.60;;;3.40;;
5299;SDS011;70402;42.670;23.258;2023-06-26T12:02:43;4.13;;;2.60;;
5299;SDS011;70402;42.670;23.258;2023-06-26T12:05:11;2.90;;;2.43;;
5299;SDS011;70402;42.670;23.258;2023-06-26T12:07:41;4.07;;;2.57;;
5299;SDS011;70402;42.670;23.258;2023-06-26T12:10:09;3.03;;;2.43;;
5299;SDS011;70402;42.670;23.258;2023-06-26T12:12:36;2.97;;;2.23;;
5299;SDS011;70402;42.670;23.258;2023-06-26T12:15:03;7.87;;;3.40;;
5299;SDS011;70402;42.670;23.258;2023-06-26T12:17:33;3.70;;;2.37;;
5299;SDS011;70402;42.670;23.258;2023-06-26T12:19:59;3.43;;;2.20;;
5299;SDS011;70402;42.670;23.258;2023-06-26T12:22:26;2.37;;;1.90;;
5299;SDS011;70402;42.670;23.258;2023-06-26T12:24:59;3.37;;;2.60;;
5299;SDS011;70402;42.670;23.258;2023-06-26T12:27:26;5.67;;;2.87;;
5299;SDS011;70402;42.670;23.258;2023-06-26T12:29:53;3.13;;;2.67;;
5299;SDS011;70402;42.670;23.258;2023-06-26T12:32:21;4.70;;;2.30;;
5299;SDS011;70402;42.670;23.258;2023-06-26T12:34:51;4.30;;;3.10;;
5299;SDS011;70402;42.670;23.258;2023-06-26T12:37:18;3.87;;;2.53;;
5299;SDS011;70402;42.670;23.258;2023-06-26T12:39:48;3.60;;;2.70;;
5299;SDS011;70402;42.670;23.258;2023-06-26T12:42:15;4.97;;;2.97;;
5299;SDS011;70402;42.670;23.258;2023-06-26T12:44:49;3.60;;;3.17;;
5299;SDS011;70402;42.670;23.258;2023-06-26T12:47:15;4.73;;;3.03;;
5299;SDS011;70402;42.670;23.258;2023-06-26T12:49:49;5.00;;;3.20;;
5299;SDS011;70402;42.670;23.258;2023-06-26T12:52:16;3.53;;;2.67;;
5299;SDS011;70402;42.670;23.258;2023-06-26T12:54:44;6.10;;;3.43;;
5299;SDS011;70402;42.670;23.258;2023-06-26T12:57:12;5.03;;;3.33;;
5299;SDS011;70402;42.670;23.258;2023-06-26T12:59:41;6.57;;;2.70;;
5299;SDS011;70402;42.670;23.258;2023-06-26T13:02:08;4.43;;;3.00;;
5299;SDS011;70402;42.670;23.258;2023-06-26T13:04:34;5.20;;;3.07;;
5299;SDS011;70402;42.670;23.258;2023-06-26T13:07:00;5.30;;;3.20;;
5299;SDS011;70402;42.670;23.258;2023-06-26T13:09:32;4.13;;;3.10;;
5299;SDS011;70402;42.670;23.258;2023-06-26T13:11:58;4.33;;;3.03;;
5299;SDS011;70402;42.670;23.258;2023-06-26T13:14:24;4.87;;;3.13;;
5299;SDS011;70402;42.670;23.258;2023-06-26T13:16:51;4.97;;;3.20;;
5299;SDS011;70402;42.670;23.258;2023-06-26T13:19:17;4.57;;;3.17;;
5299;SDS011;70402;42.670;23.258;2023-06-26T13:21:43;3.03;;;2.53;;
5299;SDS011;70402;42.670;23.258;2023-06-26T13:24:09;3.77;;;2.80;;
5299;SDS011;70402;42.670;23.258;2023-06-26T13:26:35;3.70;;;2.70;;
5299;SDS011;70402;42.670;23.258;2023-06-26T13:29:01;3.67;;;2.50;;
5299;SDS011;70402;42.670;23.258;2023-06-26T13:31:27;3.50;;;2.70;;
5299;SDS011;70402;42.670;23.258;2023-06-26T13:33:53;5.63;;;2.97;;
5299;SDS011;70402;42.670;23.258;2023-06-26T13:36:22;4.17;;;3.30;;
5299;SDS011;70402;42.670;23.258;2023-06-26T13:38:48;3.40;;;2.50;;
5299;SDS011;70402;42.670;23.258;2023-06-26T13:41:21;3.17;;;2.87;;
5299;SDS011;70402;42.670;23.258;2023-06-26T13:43:48;3.33;;;2.60;;
5299;SDS011;70402;42.670;23.258;2023-06-26T13:46:14;3.70;;;2.73;;
5299;SDS011;70402;42.670;23.258;2023-06-26T13:48:41;5.07;;;2.40;;
5299;SDS011;70402;42.670;23.258;2023-06-26T13:51:07;3.73;;;2.77;;
5299;SDS011;70402;42.670;23.258;2023-06-26T13:53:32;6.03;;;3.33;;
5299;SDS011;70402;42.670;23.258;2023-06-26T13:55:58;4.13;;;3.30;;
5299;SDS011;70402;42.670;23.258;2023-06-26T13:58:24;6.83;;;3.23;;
5299;SDS011;70402;42.670;23.258;2023-06-26T14:00:52;3.97;;;3.03;;
5299;SDS011;70402;42.670;23.258;2023-06-26T14:03:18;5.40;;;3.17;;
5299;SDS011;70402;42.670;23.258;2023-06-26T14:05:44;4.20;;;3.07;;
5299;SDS011;70402;42.670;23.258;2023-06-26T14:08:10;4.50;;;2.90;;
5299;SDS011;70402;42.670;23.258;2023-06-26T14:10:37;4.87;;;3.47;;
5299;SDS011;70402;42.670;23.258;2023-06-26T14:13:03;8.23;;;4.40;;
5299;SDS011;70402;42.670;23.258;2023-06-26T14:15:29;6.53;;;3.47;;
5299;SDS011;70402;42.670;23.258;2023-06-26T14:17:56;4.60;;;3.07;;
5299;SDS011;70402;42.670;23.258;2023-06-26T14:20:22;3.10;;;2.47;;
5299;SDS011;70402;42.670;23.258;2023-06-26T14:22:48;4.63;;;3.30;;
5299;SDS011;70402;42.670;23.258;2023-06-26T14:25:14;4.10;;;2.93;;
5299;SDS011;70402;42.670;23.258;2023-06-26T14:27:41;4.10;;;3.10;;
5299;SDS011;70402;42.670;23.258;2023-06-26T14:30:07;3.43;;;2.50;;
5299;SDS011;70402;42.670;23.258;2023-06-26T14:32:34;4.47;;;2.87;;
5299;SDS011;70402;42.670;23.258;2023-06-26T14:35:00;4.13;;;3.33;;
5299;SDS011;70402;42.670;23.258;2023-06-26T14:37:26;5.67;;;3.67;;
5299;SDS011;70402;42.670;23.258;2023-06-26T14:39:54;3.07;;;2.40;;
5299;SDS011;70402;42.670;23.258;2023-06-26T14:42:20;6.10;;;3.30;;
5299;SDS011;70402;42.670;23.258;2023-06-26T14:44:45;3.03;;;2.57;;
5299;SDS011;70402;42.670;23.258;2023-06-26T14:47:19;4.17;;;2.80;;
5299;SDS011;70402;42.670;23.258;2023-06-26T14:49:45;3.90;;;2.90;;
5299;SDS011;70402;42.670;23.258;2023-06-26T14:52:11;3.97;;;2.77;;
5299;SDS011;70402;42.670;23.258;2023-06-26T14:54:37;4.30;;;3.03;;
5299;SDS011;70402;42.670;23.258;2023-06-26T14:57:04;3.73;;;2.63;;